Time;durP1;ratioP1;P1;durP2;ratioP2;P2;SDS_P1;SDS_P2;PMS_P1;PMS_P2;Temp;Humidity;BMP_temperature;BMP_pressure;BME280_temperature;BME280_humidity;BME280_pressure;Samples;Min_cycle;Max_cycle;Signal;HPM_P1;HPM_P2
2022/01/29 00:00:41;;;;;;;2.60;2.30;;;;;;;1.55;79.93;99169.28;1797544;79;20925;-74
2022/01/29 00:03:08;;;;;;;4.05;2.60;;;;;;;1.56;79.93;99172.25;1788429;79;21041;-74
2022/01/29 00:05:35;;;;;;;3.15;2.50;;;;;;;1.57;79.89;99179.13;1765216;79;21032;-75
2022/01/29 00:08:03;;;;;;;2.60;2.40;;;;;;;1.58;79.92;99176.89;1799896;79;21408;-74
2022/01/29 00:10:31;;;;;;;2.37;2.17;;;;;;;1.59;79.90;99177.26;1784149;79;21893;-74
2022/01/29 00:13:00;;;;;;;2.52;2.33;;;;;;;1.60;79.90;99179.77;1793006;79;21004;-73
2022/01/29 00:15:27;;;;;;;4.12;2.10;;;;;;;1.61;79.87;99185.33;1781581;79;20992;-74
2022/01/29 00:17:53;;;;;;;2.75;2.27;;;;;;;1.61;79.89;99187.10;1793235;79;21032;-75
2022/01/29 00:20:20;;;;;;;2.60;2.10;;;;;;;1.60;79.89;99195.38;1797309;79;20978;-74
2022/01/29 00:22:46;;;;;;;2.47;2.15;;;;;;;1.58;79.83;99196.41;1780639;79;22430;-74
2022/01/29 00:25:12;;;;;;;2.55;2.10;;;;;;;1.58;79.84;99188.60;1785295;79;21006;-74
2022/01/29 00:27:40;;;;;;;2.92;2.33;;;;;;;1.57;79.82;99198.64;1794803;79;20924;-75
2022/01/29 00:30:10;;;;;;;2.87;2.37;;;;;;;1.54;79.85;99197.04;1757876;80;20985;-74
2022/01/29 00:32:37;;;;;;;2.30;2.00;;;;;;;1.52;79.91;99200.21;1788552;79;21052;-74
2022/01/29 00:35:05;;;;;;;3.55;2.50;;;;;;;1.51;79.92;99194.64;1751803;80;21828;-74
2022/01/29 00:37:31;;;;;;;3.08;2.50;;;;;;;1.51;79.94;99197.70;1791338;79;20945;-74
2022/01/29 00:39:57;;;;;;;2.50;2.22;;;;;;;1.52;79.95;99200.67;1780733;79;20948;-74
2022/01/29 00:42:24;;;;;;;2.70;2.35;;;;;;;1.51;79.99;99196.41;1782018;79;20991;-75
2022/01/29 00:44:50;;;;;;;3.08;2.40;;;;;;;1.51;80.04;99202.44;1780753;79;21051;-75
2022/01/29 00:47:16;;;;;;;2.83;2.42;;;;;;;1.47;80.03;99202.27;1751570;80;21794;-74
2022/01/29 00:49:45;;;;;;;2.55;2.20;;;;;;;1.46;79.99;99204.97;1756963;80;21442;-74
2022/01/29 00:52:12;;;;;;;2.83;2.20;;;;;;;1.44;79.99;99205.03;1794121;79;21088;-74
2022/01/29 00:54:38;;;;;;;2.70;2.40;;;;;;;1.43;79.99;99209.41;1793854;79;21712;-75
2022/01/29 00:57:05;;;;;;;2.62;2.40;;;;;;;1.42;80.06;99210.34;1791239;79;21463;-74
2022/01/29 00:59:33;;;;;;;2.33;2.10;;;;;;;1.42;80.07;99205.59;1786953;79;21836;-75
2022/01/29 01:02:03;;;;;;;2.33;2.10;;;;;;;1.42;80.14;99205.14;1803681;78;20926;-74
2022/01/29 01:04:30;;;;;;;2.30;2.10;;;;;;;1.43;80.12;99209.88;1795224;79;20948;-74
2022/01/29 01:06:57;;;;;;;2.10;1.75;;;;;;;1.42;80.15;99206.91;1782555;79;20961;-75
2022/01/29 01:09:23;;;;;;;2.42;1.90;;;;;;;1.43;80.18;99204.67;1794309;79;21484;-75
2022/01/29 01:11:50;;;;;;;2.20;1.95;;;;;;;1.43;80.24;99205.97;1787493;77;21853;-74
2022/01/29 01:14:16;;;;;;;2.10;1.70;;;;;;;1.42;80.24;99213.41;1771220;80;21723;-75
2022/01/29 01:16:42;;;;;;;2.08;1.80;;;;;;;1.43;80.26;99205.97;1769952;79;20973;-75
2022/01/29 01:19:09;;;;;;;2.40;1.70;;;;;;;1.43;80.25;99210.70;1753254;80;21016;-75
2022/01/29 01:21:35;;;;;;;2.30;2.00;;;;;;;1.45;80.21;99217.14;1781657;79;21480;-75
2022/01/29 01:24:02;;;;;;;2.02;1.80;;;;;;;1.46;80.20;99221.41;1772918;80;21412;-75
2022/01/29 01:26:28;;;;;;;2.02;1.70;;;;;;;1.49;80.20;99216.48;1775533;79;20925;-75
2022/01/29 01:28:55;;;;;;;1.92;1.72;;;;;;;1.49;80.15;99222.98;1782073;79;20990;-75
2022/01/29 01:31:22;;;;;;;2.72;1.70;;;;;;;1.47;79.97;99220.48;1752893;80;21384;-75
2022/01/29 01:33:48;;;;;;;1.80;1.60;;;;;;;1.48;79.99;99224.76;1770538;79;21027;-75
2022/01/29 01:36:18;;;;;;;2.00;1.65;;;;;;;1.50;79.95;99233.30;1778681;79;21864;-74
2022/01/29 01:39:00;;;;;;;1.90;1.70;;;;;;;1.52;79.92;99231.44;1794611;77;21548;-75
2022/01/29 01:41:23;;;;;;;1.95;1.65;;;;;;;1.54;79.86;99239.14;1755019;80;21048;-75
2022/01/29 01:43:46;;;;;;;1.57;1.47;;;;;;;1.53;79.79;99230.50;1805410;79;21067;-75
2022/01/29 01:46:12;;;;;;;2.12;1.60;;;;;;;1.51;79.78;99234.97;1780810;79;20933;-75
2022/01/29 01:48:38;;;;;;;1.75;1.55;;;;;;;1.50;79.79;99229.40;1792118;77;21793;-75
2022/01/29 01:51:06;;;;;;;1.75;1.50;;;;;;;1.52;79.80;99233.20;1809683;79;21474;-75
2022/01/29 01:53:33;;;;;;;1.70;1.40;;;;;;;1.51;79.73;99238.04;1778230;79;21074;-74
2022/01/29 01:56:00;;;;;;;1.70;1.42;;;;;;;1.48;79.70;99242.13;1767918;80;21426;-74
2022/01/29 01:58:26;;;;;;;1.80;1.50;;;;;;;1.50;79.70;99241.58;1782744;79;21421;-74
2022/01/29 02:00:54;;;;;;;2.05;1.47;;;;;;;1.50;79.64;99254.58;1758342;80;20992;-75
2022/01/29 02:03:23;;;;;;;2.20;1.70;;;;;;;1.49;79.64;99243.34;1779734;80;21044;-74
2022/01/29 02:05:49;;;;;;;1.75;1.50;;;;;;;1.51;79.61;99256.25;1795637;79;20982;-75
2022/01/29 02:08:17;;;;;;;2.55;1.90;;;;;;;1.49;79.59;99257.66;1797667;79;20973;-74
2022/01/29 02:10:46;;;;;;;2.22;1.65;;;;;;;1.48;79.48;99261.19;1764625;80;21046;-75
2022/01/29 02:13:14;;;;;;;1.82;1.45;;;;;;;1.47;79.44;99257.38;1788320;79;21872;-76
2022/01/29 02:15:43;;;;;;;1.82;1.60;;;;;;;1.46;79.42;99263.05;1754685;80;21079;-76
2022/01/29 02:18:14;;;;;;;2.10;1.40;;;;;;;1.45;79.40;99262.68;1772477;79;20949;-74
2022/01/29 02:20:38;;;;;;;1.70;1.37;;;;;;;1.47;79.38;99267.78;1772489;80;20981;-74
2022/01/29 02:23:05;;;;;;;2.35;1.60;;;;;;;1.47;79.36;99274.29;1757366;79;21403;-74
2022/01/29 02:25:44;;;;;;;1.70;1.30;;;;;;;1.46;79.34;99279.13;1796966;79;22189;-74
2022/01/29 02:28:20;;;;;;;1.82;1.30;;;;;;;1.47;79.30;99280.80;1786144;79;21510;-74
2022/01/29 02:30:50;;;;;;;1.42;1.32;;;;;;;1.47;79.39;99289.91;1780930;79;21379;-73
2022/01/29 02:33:17;;;;;;;1.87;1.25;;;;;;;1.47;79.25;99287.30;1756557;79;21055;-75
2022/01/29 02:35:46;;;;;;;2.00;1.40;;;;;;;1.47;79.21;99281.62;1766570;79;21083;-74
2022/01/29 02:38:14;;;;;;;1.82;1.20;;;;;;;1.45;79.22;99290.00;1772161;79;21784;-74
2022/01/29 02:40:49;;;;;;;1.47;1.30;;;;;;;1.43;79.24;99291.36;1771841;79;21015;-74
2022/01/29 02:43:29;;;;;;;2.00;1.50;;;;;;;1.43;79.24;99290.06;1780930;79;21007;-74
2022/01/29 02:45:56;;;;;;;1.32;1.05;;;;;;;1.42;79.20;99299.27;1770691;79;20992;-75
2022/01/29 02:48:23;;;;;;;1.30;0.90;;;;;;;1.41;79.19;99297.59;1765661;79;21035;-75
2022/01/29 02:50:50;;;;;;;1.98;1.15;;;;;;;1.39;79.19;99299.45;1767750;79;21837;-75
2022/01/29 02:53:17;;;;;;;1.22;1.10;;;;;;;1.38;79.19;99301.69;1748582;79;21051;-74
2022/01/29 02:55:44;;;;;;;1.27;1.00;;;;;;;1.37;79.22;99293.52;1772405;79;21501;-74
2022/01/29 02:58:10;;;;;;;1.35;1.00;;;;;;;1.38;79.24;99306.89;1775528;79;20961;-75
2022/01/29 03:00:37;;;;;;;2.17;1.25;;;;;;;1.38;79.22;99307.73;1765605;79;21000;-74
2022/01/29 03:03:04;;;;;;;1.20;1.00;;;;;;;1.36;79.21;99306.98;1794534;79;21791;-74
2022/01/29 03:05:30;;;;;;;2.02;1.32;;;;;;;1.37;79.20;99305.22;1793478;79;20937;-74
2022/01/29 03:07:57;;;;;;;1.35;0.93;;;;;;;1.37;79.21;99309.13;1800354;79;20985;-74
2022/01/29 03:10:25;;;;;;;1.52;1.02;;;;;;;1.34;79.19;99320.98;1790666;79;21280;-75
2022/01/29 03:12:53;;;;;;;2.87;1.98;;;;;;;1.32;79.21;99317.64;1784232;79;21064;-75
2022/01/29 03:15:19;;;;;;;1.40;0.98;;;;;;;1.30;79.21;99320.34;1799199;79;21797;-74
2022/01/29 03:17:48;;;;;;;8.38;5.72;;;;;;;1.30;79.20;99320.80;1815956;79;21008;-74
2022/01/29 03:20:14;;;;;;;11.10;6.83;;;;;;;1.30;79.21;99326.01;1764995;79;20980;-75
2022/01/29 03:22:41;;;;;;;15.38;10.65;;;;;;;1.29;79.21;99332.14;1782839;79;20948;-75
2022/01/29 03:25:08;;;;;;;4.30;3.60;;;;;;;1.27;79.17;99338.73;1801687;77;20988;-74
2022/01/29 03:27:34;;;;;;;1.50;1.20;;;;;;;1.28;79.18;99331.77;1763755;79;21812;-75
2022/01/29 03:30:02;;;;;;;1.27;1.10;;;;;;;1.28;79.15;99336.97;1783673;79;20944;-75
2022/01/29 03:32:29;;;;;;;4.60;3.70;;;;;;;1.29;79.16;99343.84;1796496;79;20944;-74
2022/01/29 03:34:56;;;;;;;1.90;1.70;;;;;;;1.28;79.12;99348.67;1768044;80;21031;-74
2022/01/29 03:37:23;;;;;;;1.30;1.12;;;;;;;1.30;79.12;99348.95;1784991;79;21458;-75
2022/01/29 03:39:50;;;;;;;1.80;1.27;;;;;;;1.31;79.11;99345.89;1791940;79;21843;-74
2022/01/29 03:42:17;;;;;;;3.65;2.05;;;;;;;1.32;79.09;99349.70;1792737;79;20979;-73
2022/01/29 03:44:44;;;;;;;1.22;0.90;;;;;;;1.30;79.07;99359.36;1786453;79;21019;-74
2022/01/29 03:47:11;;;;;;;1.98;1.17;;;;;;;1.30;79.02;99352.86;1767745;80;21046;-74
2022/01/29 03:49:37;;;;;;;1.85;1.47;;;;;;;1.30;78.95;99362.42;1791324;78;21387;-74
2022/01/29 03:52:04;;;;;;;2.47;1.00;;;;;;;1.31;78.95;99365.40;1787264;79;22808;-74
2022/01/29 03:54:31;;;;;;;0.70;0.70;;;;;;;1.31;78.92;99368.00;1797099;79;21031;-74
2022/01/29 03:56:58;;;;;;;1.02;0.90;;;;;;;1.30;78.86;99362.42;1778395;79;21433;-75
2022/01/29 03:59:24;;;;;;;1.40;1.20;;;;;;;1.28;78.87;99370.79;1783424;79;21031;-74
2022/01/29 04:01:51;;;;;;;1.02;0.80;;;;;;;1.28;78.93;99370.32;1751614;80;21106;-75
2022/01/29 04:04:17;;;;;;;1.27;0.80;;;;;;;1.27;78.92;99380.82;1785104;79;21793;-75
2022/01/29 04:06:43;;;;;;;0.98;0.88;;;;;;;1.24;78.96;99376.61;1788172;79;21020;-74
2022/01/29 04:09:11;;;;;;;0.93;0.85;;;;;;;1.21;78.99;99385.89;1794552;79;20949;-75
2022/01/29 04:11:39;;;;;;;1.02;0.90;;;;;;;1.19;79.04;99383.02;1808316;79;20946;-75
2022/01/29 04:14:17;;;;;;;1.20;0.80;;;;;;;1.16;79.11;99386.64;1783775;79;20977;-75
2022/01/29 04:16:44;;;;;;;1.12;0.70;;;;;;;1.12;79.20;99389.85;1808944;79;21800;-75
2022/01/29 04:19:12;;;;;;;1.07;0.75;;;;;;;1.11;79.24;99395.98;1799499;79;21037;-75
2022/01/29 04:21:41;;;;;;;1.00;0.70;;;;;;;1.10;79.32;99396.91;1787835;79;21020;-75
2022/01/29 04:24:07;;;;;;;0.53;0.50;;;;;;;1.09;79.32;99400.44;1764923;79;21064;-75
2022/01/29 04:26:35;;;;;;;0.93;0.75;;;;;;;1.08;79.40;99400.06;1771700;79;21098;-75
2022/01/29 04:29:05;;;;;;;0.80;0.62;;;;;;;1.09;79.43;99404.34;1770287;79;21813;-75
2022/01/29 04:31:41;;;;;;;3.08;2.20;;;;;;;1.10;79.43;99409.91;1778012;79;21339;-76
2022/01/29 04:34:04;;;;;;;3.83;2.75;;;;;;;1.10;79.43;99414.27;1773043;79;21074;-72
2022/01/29 04:36:31;;;;;;;2.87;1.62;;;;;;;1.09;79.49;99413.91;1770324;79;21444;-73
2022/01/29 04:39:03;;;;;;;1.25;1.00;;;;;;;1.08;79.46;99418.27;1782245;78;20964;-74
2022/01/29 04:41:29;;;;;;;1.65;1.30;;;;;;;1.07;79.44;99420.95;1799878;79;21774;-72
2022/01/29 04:43:56;;;;;;;1.42;1.00;;;;;;;1.04;79.49;99421.94;1779233;79;20995;-72
2022/01/29 04:46:25;;;;;;;1.52;1.20;;;;;;;1.06;79.49;99433.12;1772188;79;21418;-72
2022/01/29 04:48:53;;;;;;;1.20;0.93;;;;;;;1.07;79.47;99432.20;1780860;79;21456;-72
2022/01/29 04:51:20;;;;;;;1.47;1.20;;;;;;;1.09;79.44;99434.24;1787177;78;21463;-72
2022/01/29 04:53:47;;;;;;;1.20;1.00;;;;;;;1.10;79.42;99437.68;1786403;78;22477;-73
2022/01/29 04:56:14;;;;;;;1.32;0.80;;;;;;;1.09;79.29;99449.84;1789700;78;20993;-73
2022/01/29 04:58:41;;;;;;;1.75;1.27;;;;;;;1.10;79.19;99447.62;1780527;79;20992;-74
2022/01/29 05:01:07;;;;;;;2.27;1.80;;;;;;;1.09;79.01;99452.45;1784686;79;20985;-73
2022/01/29 05:03:34;;;;;;;1.55;1.15;;;;;;;1.10;78.91;99446.78;1799586;79;21032;-76
2022/01/29 05:06:03;;;;;;;1.45;1.15;;;;;;;1.10;78.82;99457.19;1800771;78;22479;-74
2022/01/29 05:08:31;;;;;;;1.10;1.00;;;;;;;1.09;78.77;99460.25;1796775;78;20925;-73
2022/01/29 05:10:58;;;;;;;1.50;1.00;;;;;;;1.06;78.70;99461.73;1779529;79;20984;-72
2022/01/29 05:13:28;;;;;;;1.80;1.20;;;;;;;1.08;78.73;99460.34;1797600;78;21024;-72
2022/01/29 05:27:00;;;;;;;1.55;1.30;;;;;;;0.99;79.05;99475.98;1787459;79;20936;-73
2022/01/29 05:29:29;;;;;;;2.20;1.30;;;;;;;0.94;79.24;99480.58;1793040;77;21023;-73
2022/01/29 05:31:53;;;;;;;2.10;1.60;;;;;;;0.90;79.31;99482.14;1782086;79;21835;-73
2022/01/29 05:34:19;;;;;;;2.20;1.65;;;;;;;0.86;79.47;99480.98;1781187;80;21383;-73
2022/01/29 05:36:46;;;;;;;2.33;1.80;;;;;;;0.86;79.46;99494.44;1787784;79;21450;-73
2022/01/29 05:39:13;;;;;;;2.15;1.95;;;;;;;0.90;79.47;99496.44;1803261;77;21387;-73
2022/01/29 05:41:39;;;;;;;3.02;2.45;;;;;;;0.90;79.44;99497.27;1806399;79;21423;-73
2022/01/29 05:44:06;;;;;;;1.80;1.70;;;;;;;0.92;79.40;99515.39;1813365;78;22847;-73
2022/01/29 05:46:35;;;;;;;3.45;3.02;;;;;;;0.92;79.40;99513.63;1810891;79;21022;-73
2022/01/29 05:49:03;;;;;;;3.87;3.10;;;;;;;0.94;79.37;99510.94;1800109;79;21423;-73
2022/01/29 05:51:30;;;;;;;2.52;2.30;;;;;;;0.93;79.38;99523.09;1781589;79;21342;-73
2022/01/29 05:53:58;;;;;;;3.05;2.47;;;;;;;0.93;79.37;99519.66;1782337;79;20971;-73
2022/01/29 05:56:27;;;;;;;2.92;2.37;;;;;;;0.94;79.41;99530.44;1807522;77;21801;-73
2022/01/29 05:58:55;;;;;;;2.22;2.00;;;;;;;0.95;79.40;99539.91;1812879;77;20980;-73
2022/01/29 06:01:21;;;;;;;2.80;2.50;;;;;;;0.94;79.43;99531.27;1799003;79;21375;-73
2022/01/29 06:03:48;;;;;;;3.67;2.75;;;;;;;0.95;79.45;99530.81;1813376;79;21352;-73
2022/01/29 06:06:14;;;;;;;2.72;1.77;;;;;;;0.94;79.52;99540.38;1796376;79;21533;-73
2022/01/29 06:08:41;;;;;;;2.55;2.10;;;;;;;0.94;79.54;99533.03;1803482;79;21705;-73
2022/01/29 06:11:07;;;;;;;3.47;2.90;;;;;;;0.95;79.57;99532.95;1797492;79;21373;-73
2022/01/29 06:13:36;;;;;;;3.30;2.62;;;;;;;0.95;79.62;99534.70;1793991;79;20988;-74
2022/01/29 06:16:02;;;;;;;5.65;4.50;;;;;;;0.93;79.62;99531.36;1782592;79;21000;-74
2022/01/29 06:18:29;;;;;;;12.23;8.93;;;;;;;0.94;79.61;99537.77;1781331;79;20936;-74
2022/01/29 06:21:04;;;;;;;11.50;8.75;;;;;;;0.94;79.57;99542.97;1783325;79;21832;-75
2022/01/29 06:23:34;;;;;;;5.33;3.50;;;;;;;0.95;79.57;99547.25;1737222;82;21047;-74
2022/01/29 06:26:03;;;;;;;5.58;3.50;;;;;;;0.97;79.57;99555.00;1768939;79;20968;-74
2022/01/29 06:28:31;;;;;;;2.40;2.15;;;;;;;0.97;79.58;99561.03;1792224;79;20965;-74
2022/01/29 06:30:59;;;;;;;1.82;1.52;;;;;;;0.99;79.55;99568.28;1785035;79;21013;-74
2022/01/29 06:33:26;;;;;;;2.50;2.30;;;;;;;1.00;79.49;99569.13;1764476;79;21822;-74
2022/01/29 06:35:54;;;;;;;2.37;1.80;;;;;;;1.01;79.47;99570.80;1763798;79;21604;-74
2022/01/29 06:38:21;;;;;;;2.00;1.80;;;;;;;1.01;79.42;99570.34;1776049;80;20957;-74
2022/01/29 06:40:48;;;;;;;3.90;1.92;;;;;;;1.03;79.33;99576.29;1768692;79;21001;-74
2022/01/29 06:43:15;;;;;;;6.45;4.97;;;;;;;1.05;79.22;99576.20;1744052;81;21057;-74
2022/01/29 06:45:42;;;;;;;3.20;2.55;;;;;;;1.05;79.09;99582.70;1796424;79;22537;-74
2022/01/29 06:48:09;;;;;;;2.40;2.20;;;;;;;1.07;78.99;99580.89;1756595;79;20994;-74
2022/01/29 06:50:36;;;;;;;1.90;1.60;;;;;;;1.10;78.94;99582.02;1806716;79;21037;-74
2022/01/29 06:53:04;;;;;;;1.95;1.75;;;;;;;1.10;78.79;99586.75;1782051;79;20954;-74
2022/01/29 06:55:31;;;;;;;1.75;1.50;;;;;;;1.12;78.71;99589.27;1768526;79;21005;-75
2022/01/29 06:57:59;;;;;;;1.95;1.60;;;;;;;1.15;78.67;99590.39;1770948;79;22269;-74
2022/01/29 07:00:25;;;;;;;1.95;1.40;;;;;;;1.20;78.59;99604.47;1755776;79;20996;-75
2022/01/29 07:02:51;;;;;;;2.10;1.50;;;;;;;1.20;78.24;99601.88;1776660;79;20989;-74
2022/01/29 07:05:18;;;;;;;1.42;1.32;;;;;;;1.21;78.01;99607.45;1770030;79;20982;-75
2022/01/29 07:07:44;;;;;;;1.25;1.15;;;;;;;1.25;77.90;99607.66;1776470;80;21085;-75
2022/01/29 07:10:11;;;;;;;1.72;1.30;;;;;;;1.29;77.90;99606.13;1807210;79;21778;-74
2022/01/29 07:12:39;;;;;;;1.90;1.40;;;;;;;1.33;77.69;99611.98;1794485;79;21002;-75
2022/01/29 07:15:10;;;;;;;1.92;1.15;;;;;;;1.36;77.44;99613.15;1813730;79;20959;-75
2022/01/29 07:17:37;;;;;;;3.27;1.70;;;;;;;1.41;77.24;99609.36;1783584;78;21025;-75
2022/01/29 07:20:05;;;;;;;1.60;1.25;;;;;;;1.43;76.88;99612.70;1784998;79;20958;-74
2022/01/29 07:22:34;;;;;;;2.67;1.20;;;;;;;1.46;76.61;99622.14;1804116;79;22539;-74
2022/01/29 07:25:01;;;;;;;1.60;1.10;;;;;;;1.48;76.38;99620.28;1792437;79;20983;-74
2022/01/29 07:27:27;;;;;;;1.85;1.35;;;;;;;1.50;76.03;99628.00;1812619;79;20968;-75
2022/01/29 07:29:54;;;;;;;1.65;1.20;;;;;;;1.54;76.02;99629.04;1801875;78;21011;-75
2022/01/29 07:32:21;;;;;;;1.85;1.12;;;;;;;1.53;75.75;99622.63;1784163;79;21086;-74
2022/01/29 07:34:47;;;;;;;1.50;1.15;;;;;;;1.54;75.52;99632.11;1797751;79;21719;-74
2022/01/29 07:37:14;;;;;;;1.15;1.05;;;;;;;1.54;75.42;99623.84;1788938;79;21408;-75
2022/01/29 07:39:40;;;;;;;1.50;0.90;;;;;;;1.55;75.24;99642.46;1799959;77;20927;-75
2022/01/29 07:42:07;;;;;;;1.20;0.82;;;;;;;1.53;74.68;99639.54;1796479;79;21015;-75
2022/01/29 07:44:36;;;;;;;1.20;1.00;;;;;;;1.56;74.62;99644.14;1789796;77;20994;-75
2022/01/29 07:47:02;;;;;;;1.62;1.02;;;;;;;1.60;74.33;99648.70;1806166;79;21810;-72
2022/01/29 07:49:29;;;;;;;1.37;1.02;;;;;;;1.61;73.92;99656.42;1797166;77;20935;-75
2022/01/29 07:51:57;;;;;;;1.10;1.00;;;;;;;1.65;73.93;99661.86;1808003;79;20980;-71
2022/01/29 07:54:23;;;;;;;1.35;1.07;;;;;;;1.71;73.81;99663.27;1813403;77;20956;-71
2022/01/29 07:56:50;;;;;;;1.50;1.00;;;;;;;1.79;73.77;99665.00;1803632;77;20929;-73
2022/01/29 07:59:16;;;;;;;1.62;0.80;;;;;;;1.86;73.57;99674.63;1794853;79;22250;-74
2022/01/29 08:01:43;;;;;;;1.15;0.68;;;;;;;1.90;73.25;99681.34;1790688;79;20940;-69
2022/01/29 08:04:10;;;;;;;0.95;0.68;;;;;;;1.92;72.71;99686.83;1782558;79;20979;-70
2022/01/29 08:06:37;;;;;;;0.70;0.62;;;;;;;1.93;72.18;99688.55;1786313;77;21011;-71
2022/01/29 08:09:03;;;;;;;1.12;0.60;;;;;;;1.94;71.84;99685.01;1791972;79;20928;-70
2022/01/29 08:11:29;;;;;;;1.10;0.70;;;;;;;1.93;71.51;99692.45;1777414;80;21861;-71
2022/01/29 08:13:56;;;;;;;1.22;0.70;;;;;;;1.95;71.29;99693.66;1780822;79;21035;-71
2022/01/29 08:16:23;;;;;;;0.85;0.68;;;;;;;1.93;70.76;99698.09;1797360;77;20924;-76
2022/01/29 08:18:50;;;;;;;1.15;0.90;;;;;;;1.93;70.86;99707.20;1798523;77;20999;-76
2022/01/29 08:21:17;;;;;;;1.80;1.35;;;;;;;1.95;70.94;99706.22;1780759;79;20982;-78
2022/01/29 08:23:45;;;;;;;2.55;1.80;;;;;;;1.98;71.06;99707.81;1788102;79;22328;-78
2022/01/29 08:26:12;;;;;;;1.30;1.20;;;;;;;2.00;71.15;99713.30;1799953;79;20928;-75
2022/01/29 08:28:38;;;;;;;1.37;1.10;;;;;;;2.00;71.29;99714.61;1793314;79;20984;-75
2022/01/29 08:31:05;;;;;;;1.67;1.22;;;;;;;1.99;71.40;99717.30;1786140;79;20999;-74
2022/01/29 08:33:32;;;;;;;1.10;0.85;;;;;;;1.96;71.61;99718.31;1789977;79;20999;-75
2022/01/29 08:35:59;;;;;;;1.75;0.90;;;;;;;1.88;71.87;99728.30;1813424;77;21387;-75
2022/01/29 08:38:26;;;;;;;1.17;1.07;;;;;;;1.84;72.19;99737.67;1793909;77;21478;-75
2022/01/29 08:40:54;;;;;;;1.98;1.60;;;;;;;1.79;72.33;99741.81;1794495;77;20951;-74
2022/01/29 08:43:22;;;;;;;1.85;1.55;;;;;;;1.78;72.72;99743.20;1813587;77;21399;-74
2022/01/29 08:45:50;;;;;;;6.72;5.10;;;;;;;1.73;72.95;99742.13;1807933;79;21414;-74
2022/01/29 08:48:18;;;;;;;5.62;4.37;;;;;;;1.71;73.20;99747.88;1790318;79;21757;-75
2022/01/29 08:50:44;;;;;;;3.05;2.75;;;;;;;1.71;73.47;99753.92;1765830;80;21567;-75
2022/01/29 08:53:11;;;;;;;2.83;2.30;;;;;;;1.72;73.76;99752.16;1795162;77;20931;-75
2022/01/29 08:55:38;;;;;;;4.67;4.12;;;;;;;1.76;73.93;99745.89;1810157;77;21157;-75
2022/01/29 08:58:07;;;;;;;4.92;3.92;;;;;;;1.82;74.09;99744.70;1791192;79;21054;-74
2022/01/29 09:00:36;;;;;;;8.10;5.90;;;;;;;1.86;74.12;99754.05;1767010;80;21813;-74
2022/01/29 09:03:04;;;;;;;5.22;4.12;;;;;;;1.86;73.90;99748.38;1810481;79;20968;-74
2022/01/29 09:05:34;;;;;;;7.58;6.30;;;;;;;1.90;73.87;99751.19;1785132;80;21443;-74
2022/01/29 09:08:02;;;;;;;2.52;2.33;;;;;;;1.94;73.86;99751.88;1786895;79;21110;-74
2022/01/29 09:10:30;;;;;;;5.17;4.50;;;;;;;1.96;73.57;99750.03;1784231;79;21089;-74
2022/01/29 09:12:59;;;;;;;4.87;4.12;;;;;;;1.97;73.32;99751.70;1797682;79;21625;-74
2022/01/29 09:15:25;;;;;;;7.58;5.97;;;;;;;1.99;73.22;99761.11;1784553;79;21103;-74
2022/01/29 09:17:51;;;;;;;5.58;5.00;;;;;;;1.99;73.04;99754.59;1799046;79;21473;-75
2022/01/29 09:20:18;;;;;;;8.65;7.20;;;;;;;2.01;72.91;99762.33;1797815;79;20991;-73
2022/01/29 09:22:44;;;;;;;9.48;6.67;;;;;;;2.03;72.77;99763.54;1782793;80;21026;-72
2022/01/29 09:25:11;;;;;;;19.95;14.18;;;;;;;2.03;72.43;99761.81;1807031;78;22199;-72
2022/01/29 09:27:37;;;;;;;4.12;3.35;;;;;;;2.04;72.35;99767.86;1805100;77;20991;-73
2022/01/29 09:30:07;;;;;;;3.50;2.20;;;;;;;2.02;72.08;99775.72;1796421;79;20983;-73
2022/01/29 09:32:34;;;;;;;3.85;2.90;;;;;;;2.01;71.88;99778.80;1780505;79;20999;-73
2022/01/29 09:35:01;;;;;;;2.35;1.92;;;;;;;2.00;71.72;99776.27;1802309;78;20983;-73
2022/01/29 09:37:28;;;;;;;2.60;1.72;;;;;;;1.98;71.55;99772.45;1785888;79;21825;-76
2022/01/29 09:39:54;;;;;;;2.50;1.70;;;;;;;1.97;71.14;99780.36;1780544;80;20983;-76
2022/01/29 09:42:21;;;;;;;2.35;2.00;;;;;;;1.97;70.98;99777.29;1785059;79;20987;-72
2022/01/29 09:44:48;;;;;;;1.92;1.50;;;;;;;1.96;70.78;99783.89;1780573;79;20983;-72
2022/01/29 09:47:18;;;;;;;3.08;1.77;;;;;;;1.99;70.80;99775.90;1780549;80;21090;-76
2022/01/29 09:49:44;;;;;;;4.55;1.70;;;;;;;2.01;70.62;99782.70;1780518;79;22479;-73
2022/01/29 09:52:11;;;;;;;2.12;1.40;;;;;;;2.04;70.33;99784.78;1781680;79;21342;-73
2022/01/29 09:54:37;;;;;;;1.72;1.30;;;;;;;1.98;69.91;99787.24;1781434;79;21445;-73
2022/01/29 09:57:05;;;;;;;1.52;1.10;;;;;;;1.93;69.85;99786.20;1781432;79;20947;-73
2022/01/29 09:59:31;;;;;;;1.40;1.30;;;;;;;1.91;69.80;99784.58;1780894;79;21362;-71
2022/01/29 10:01:57;;;;;;;1.65;1.07;;;;;;;1.90;69.68;99785.50;1807580;77;22176;-69
2022/01/29 10:04:24;;;;;;;1.98;1.10;;;;;;;1.84;69.60;99785.84;1792937;79;21039;-69
2022/01/29 10:07:16;;;;;;;1.72;1.40;;;;;;;1.84;69.70;99784.55;1788734;79;20995;-69
2022/01/29 10:09:42;;;;;;;1.45;1.15;;;;;;;1.83;69.74;99781.07;1769385;79;20955;-69
2022/01/29 10:12:31;;;;;;;2.02;1.30;;;;;;;1.81;69.67;99784.22;1791293;79;20983;-71
2022/01/29 10:15:05;;;;;;;1.80;1.30;;;;;;;1.79;69.67;99793.89;1793238;79;22274;-69
2022/01/29 10:17:48;;;;;;;;;;;;;;;1.77;69.88;99796.20;1788760;79;20932;-72
2022/01/29 10:20:23;;;;;;;1.97;1.30;;;;;;;1.74;70.13;99788.09;1782372;79;20191;-70
2022/01/29 10:22:56;;;;;;;1.52;1.10;;;;;;;1.67;70.52;99781.06;1786215;79;20998;-71
2022/01/29 10:25:36;;;;;;;1.60;1.10;;;;;;;1.60;70.68;99800.97;1798242;77;20968;-70
2022/01/29 10:28:20;;;;;;;1.55;1.12;;;;;;;1.57;70.84;99799.38;1806840;78;21814;-70
2022/01/29 10:30:57;;;;;;;1.20;1.00;;;;;;;1.59;70.79;99801.44;1806476;79;21479;-72
2022/01/29 10:33:41;;;;;;;1.98;1.15;;;;;;;1.62;70.78;99799.96;1797919;79;20936;-71
2022/01/29 10:36:12;;;;;;;1.52;1.10;;;;;;;1.66;70.69;99801.97;1791012;79;21454;-73
2022/01/29 10:38:53;;;;;;;2.00;1.20;;;;;;;1.65;70.53;99806.80;1791804;78;21577;-74
2022/01/29 10:41:27;;;;;;;2.33;1.90;;;;;;;1.63;70.39;99799.04;1801689;79;21803;-72
2022/01/29 10:44:14;;;;;;;1.80;1.30;;;;;;;1.60;70.70;99807.02;1793250;79;20984;-69
2022/01/29 10:46:43;;;;;;;1.85;1.60;;;;;;;1.59;70.93;99807.94;1788741;79;21071;-72
2022/01/29 10:49:26;;;;;;;3.40;2.10;;;;;;;1.59;70.92;99817.05;1789447;79;20999;-69
2022/01/29 10:51:59;;;;;;;6.03;4.97;;;;;;;1.56;70.46;99814.61;1798430;79;20972;-70
2022/01/29 10:54:26;;;;;;;4.03;3.02;;;;;;;1.59;70.61;99824.86;1811322;78;21816;-74
2022/01/29 10:57:04;;;;;;;3.75;2.00;;;;;;;1.58;70.12;99813.23;1795778;79;21030;-72
2022/01/29 10:59:36;;;;;;;3.05;2.37;;;;;;;1.57;70.11;99804.58;1795761;79;21422;-70
2022/01/29 11:02:07;;;;;;;1.85;1.50;;;;;;;1.61;70.25;99819.11;1781452;79;21418;-70
2022/01/29 11:04:36;;;;;;;3.22;1.80;;;;;;;1.64;69.84;99819.41;1799880;79;20944;-70
2022/01/29 11:07:08;;;;;;;2.90;2.17;;;;;;;1.63;69.41;99826.37;1797674;79;21808;-70
2022/01/29 11:09:34;;;;;;;1.87;1.10;;;;;;;1.65;69.32;99825.86;1807956;79;21383;-70
2022/01/29 11:12:04;;;;;;;3.85;1.20;;;;;;;1.65;69.15;99828.46;1809612;79;20924;-70
2022/01/29 11:14:32;;;;;;;2.15;1.20;;;;;;;1.63;68.63;99834.18;1789071;79;21370;-70
2022/01/29 11:16:59;;;;;;;2.12;1.20;;;;;;;1.63;68.64;99834.18;1788665;79;21027;-70
2022/01/29 11:19:26;;;;;;;4.58;3.80;;;;;;;1.64;68.64;99828.52;1753407;80;22226;-70
2022/01/29 11:21:54;;;;;;;3.12;1.52;;;;;;;1.62;68.54;99839.01;1795571;79;21395;-70
2022/01/29 11:24:23;;;;;;;3.05;1.77;;;;;;;1.60;68.35;99840.85;1809288;79;20963;-70
2022/01/29 11:26:50;;;;;;;2.92;1.10;;;;;;;1.58;68.03;99843.16;1796005;79;21439;-69
2022/01/29 11:29:35;;;;;;;1.72;1.30;;;;;;;1.55;68.01;99845.47;1794082;79;20986;-69
2022/01/29 11:32:25;;;;;;;1.80;1.42;;;;;;;1.54;67.92;99855.47;1798890;79;21775;-69
2022/01/29 11:35:16;;;;;;;5.58;3.83;;;;;;;1.52;67.82;99856.02;1798923;79;20964;-70
2022/01/29 11:38:00;;;;;;;3.22;1.85;;;;;;;1.50;67.82;99862.22;1776388;79;20944;-72
2022/01/29 11:40:34;;;;;;;;;;;;;;;1.50;67.91;99868.73;1803534;79;21379;-73
2022/01/29 11:43:16;;;;;;;;;;;;;;;1.47;67.75;99872.34;1791781;79;20227;-71
2022/01/29 11:45:58;;;;;;;2.67;1.60;;;;;;;1.47;67.77;99878.84;1773579;80;21873;-73
2022/01/29 11:48:34;;;;;;;5.10;3.15;;;;;;;1.48;67.78;99879.68;1786067;77;21418;-72
2022/01/29 11:51:05;;;;;;;2.22;1.50;;;;;;;1.46;67.48;99884.13;1782535;79;21057;-70
2022/01/29 11:53:52;;;;;;;2.62;1.85;;;;;;;1.46;67.41;99893.23;1793957;79;21074;-70
2022/01/29 11:56:31;;;;;;;6.85;5.00;;;;;;;1.44;67.13;99886.78;1811084;77;21027;-71
2022/01/29 11:59:28;;;;;;;6.08;4.97;;;;;;;1.47;67.24;99893.61;1812590;77;21800;-70